Time;durP1;ratioP1;P1;durP2;ratioP2;P2;SDS_P1;SDS_P2;PMS_P1;PMS_P2;Temp;Humidity;BMP_temperature;BMP_pressure;BME280_temperature;BME280_humidity;BME280_pressure;Samples;Min_cycle;Max_cycle;Signal;HPM_P1;HPM_P2
2023/03/07 05:12:17;;;;;;;52.33;24.58;;;;;;;0.88;100.00;99273.78;5562295;32;182734;-85
2023/03/07 05:15:20;;;;;;;54.05;25.58;;;;;;;0.80;100.00;99271.38;5550214;32;34303;-86
2023/03/07 05:18:24;;;;;;;58.42;26.05;;;;;;;0.80;100.00;99273.09;5551549;32;34333;-86
2023/03/07 05:21:27;;;;;;;52.05;24.08;;;;;;;0.79;100.00;99271.41;5551036;32;33732;-86
2023/03/07 05:24:30;;;;;;;51.35;24.20;;;;;;;0.79;100.00;99269.66;5551118;32;33795;-86
2023/03/07 05:27:33;;;;;;;45.22;23.20;;;;;;;0.80;100.00;99271.38;5550801;32;34102;-86
2023/03/07 05:30:36;;;;;;;47.47;22.73;;;;;;;0.86;100.00;99272.09;5549610;32;34036;-86
2023/03/07 05:33:41;;;;;;;50.25;24.52;;;;;;;0.93;100.00;99276.25;5548921;32;33581;-86
2023/03/07 05:36:44;;;;;;;46.65;23.62;;;;;;;0.98;100.00;99283.94;5547825;32;33555;-86
2023/03/07 05:39:47;;;;;;;48.85;23.95;;;;;;;1.02;100.00;99283.84;5547814;32;34011;-86
2023/03/07 05:42:52;;;;;;;52.13;23.02;;;;;;;1.22;100.00;99279.81;5549050;32;34040;-86
2023/03/07 05:45:55;;;;;;;47.08;23.67;;;;;;;1.52;100.00;99281.53;5548717;32;34451;-86
2023/03/07 05:48:58;;;;;;;48.53;23.52;;;;;;;1.50;100.00;99284.19;5549067;32;34786;-86
2023/03/07 05:52:02;;;;;;;46.03;23.73;;;;;;;1.41;100.00;99277.47;5548510;32;34146;-86
2023/03/07 05:55:06;;;;;;;51.85;24.15;;;;;;;1.53;100.00;99280.62;5548502;32;33799;-86
2023/03/07 05:58:09;;;;;;;48.78;23.52;;;;;;;1.42;100.00;99287.06;5548355;32;34055;-86
2023/03/07 06:01:12;;;;;;;46.13;23.33;;;;;;;1.37;100.00;99286.34;5548535;32;33933;-86
2023/03/07 06:04:15;;;;;;;45.28;22.98;;;;;;;1.44;100.00;99289.59;5548593;32;34367;-85
2023/03/07 06:07:17;;;;;;;46.47;23.08;;;;;;;1.46;100.00;99291.28;5549328;32;34955;-85
2023/03/07 06:10:21;;;;;;;52.00;23.17;;;;;;;1.46;100.00;99293.88;5547845;32;34421;-85
2023/03/07 06:13:24;;;;;;;46.00;24.05;;;;;;;1.54;100.00;99293.66;5548182;32;33537;-85
2023/03/07 06:16:27;;;;;;;46.15;23.87;;;;;;;1.72;100.00;99301.88;5533120;32;32652;-85
2023/03/07 06:19:30;;;;;;;46.90;24.65;;;;;;;1.72;100.00;99307.09;5547045;32;35113;-85
2023/03/07 06:22:36;;;;;;;46.92;25.00;;;;;;;1.85;100.00;99310.16;5539204;32;34157;-85
2023/03/07 06:25:39;;;;;;;45.55;24.55;;;;;;;1.92;100.00;99313.47;5532351;32;33871;-85
2023/03/07 06:28:42;;;;;;;44.20;24.00;;;;;;;2.01;100.00;99321.88;5535446;32;34227;-85
2023/03/07 06:31:45;;;;;;;48.05;24.33;;;;;;;2.19;100.00;99319.59;5536200;32;33875;-85
2023/03/07 06:34:48;;;;;;;47.88;24.60;;;;;;;2.41;100.00;99318.88;5534862;32;34667;-85
2023/03/07 06:37:51;;;;;;;45.15;25.23;;;;;;;2.42;100.00;99318.81;5534440;32;34408;-85
2023/03/07 06:40:55;;;;;;;49.17;24.60;;;;;;;2.37;100.00;99322.50;5538017;32;33783;-85
2023/03/07 06:43:58;;;;;;;45.47;25.62;;;;;;;2.46;100.00;99324.81;5540266;32;33955;-85
2023/03/07 06:47:01;;;;;;;46.17;24.92;;;;;;;2.48;100.00;99317.78;5534576;32;34373;-85
2023/03/07 06:50:04;;;;;;;46.65;26.23;;;;;;;2.72;100.00;99322.22;5530661;32;34631;-85
2023/03/07 06:53:08;;;;;;;47.58;25.37;;;;;;;2.72;100.00;99325.72;5536140;32;34129;-85
2023/03/07 06:56:11;;;;;;;46.00;24.85;;;;;;;2.71;100.00;99323.16;5527629;32;35598;-85
2023/03/07 06:59:14;;;;;;;47.20;24.90;;;;;;;2.80;100.00;99318.44;5531639;32;34248;-86
2023/03/07 07:02:17;;;;;;;56.42;26.70;;;;;;;2.97;100.00;99323.09;5527638;32;33774;-86
2023/03/07 07:05:20;;;;;;;49.22;25.50;;;;;;;3.10;100.00;99327.88;5525726;32;33948;-86
2023/03/07 07:08:25;;;;;;;54.47;25.15;;;;;;;3.40;100.00;99332.94;5528267;32;34146;-90
2023/03/07 07:11:31;;;;;;;46.15;25.42;;;;;;;3.55;100.00;99326.28;5532876;32;33931;-91
2023/03/07 07:14:34;;;;;;;47.42;26.40;;;;;;;3.61;100.00;99322.53;5532316;32;34691;-91
2023/03/07 07:17:40;;;;;;;49.10;25.88;;;;;;;3.71;100.00;99321.28;5546775;32;34972;-87
2023/03/07 07:20:43;;;;;;;47.85;26.80;;;;;;;3.87;100.00;99329.41;5536716;32;35107;-86
2023/03/07 07:23:46;;;;;;;46.65;27.10;;;;;;;4.10;100.00;99325.03;5555258;32;34633;-88
2023/03/07 07:26:49;;;;;;;47.05;25.88;;;;;;;4.13;100.00;99326.69;5559901;32;35190;-87
2023/03/07 07:29:52;;;;;;;55.38;28.83;;;;;;;3.95;100.00;99333.50;5549872;32;34115;-87
2023/03/07 07:32:55;;;;;;;55.60;28.00;;;;;;;3.96;100.00;99338.72;5544834;32;34720;-87
2023/03/07 07:35:59;;;;;;;56.70;30.05;;;;;;;3.97;100.00;99329.06;5539172;32;33879;-86
2023/03/07 07:39:06;;;;;;;54.90;30.17;;;;;;;4.31;100.00;99338.22;5537154;32;34073;-87
2023/03/07 07:42:10;;;;;;;58.55;29.45;;;;;;;4.58;100.00;99332.75;5538470;32;33747;-89
2023/03/07 07:45:16;;;;;;;64.18;32.75;;;;;;;4.92;100.00;99330.47;5537159;32;34033;-88
2023/03/07 07:48:20;;;;;;;70.75;31.35;;;;;;;5.08;100.00;99335.94;5539287;32;34334;-88
2023/03/07 07:51:23;;;;;;;61.58;31.10;;;;;;;5.16;100.00;99339.06;5519173;32;34026;-88
2023/03/07 07:54:28;;;;;;;55.38;30.02;;;;;;;5.36;100.00;99334.69;5530135;32;34812;-83
2023/03/07 07:57:31;;;;;;;54.38;30.08;;;;;;;5.46;100.00;99333.34;5539070;32;33979;-84
2023/03/07 08:00:34;;;;;;;58.65;30.55;;;;;;;5.49;100.00;99335.84;5535882;32;34424;-85
2023/03/07 08:03:39;;;;;;;56.37;29.35;;;;;;;5.39;100.00;99332.78;5529325;32;33753;-84
2023/03/07 08:06:43;;;;;;;55.30;29.77;;;;;;;5.43;100.00;99330.00;5545002;32;34533;-84
2023/03/07 08:09:46;;;;;;;59.17;30.80;;;;;;;5.49;100.00;99329.72;5528560;32;34728;-84
2023/03/07 08:12:50;;;;;;;54.70;29.17;;;;;;;5.29;100.00;99336.75;5535951;32;33696;-83
2023/03/07 08:15:53;;;;;;;57.85;30.67;;;;;;;5.31;100.00;99334.91;5534307;32;33870;-84
2023/03/07 08:18:56;;;;;;;61.00;32.35;;;;;;;5.74;100.00;99329.44;5532918;32;33450;-84
2023/03/07 08:22:00;;;;;;;54.88;29.33;;;;;;;6.12;100.00;99328.59;5533437;32;34076;-84
2023/03/07 08:25:09;;;;;;;58.47;29.70;;;;;;;6.10;100.00;99327.81;5528629;32;33968;-84
2023/03/07 08:28:12;;;;;;;56.13;29.50;;;;;;;6.55;100.00;99333.53;5533266;32;33987;-85
2023/03/07 08:31:22;;;;;;;52.08;28.90;;;;;;;6.80;100.00;99328.81;5553106;32;34211;-86
2023/03/07 08:34:25;;;;;;;49.75;27.23;;;;;;;6.98;100.00;99330.50;5540691;32;34276;-84
2023/03/07 08:37:28;;;;;;;44.28;24.87;;;;;;;7.27;99.37;99333.44;5536899;32;35043;-84
2023/03/07 08:40:31;;;;;;;42.53;23.95;;;;;;;7.13;94.51;99339.41;5530112;32;34882;-85
2023/03/07 08:43:35;;;;;;;45.28;23.48;;;;;;;7.46;91.25;99342.12;5538947;32;34333;-85
2023/03/07 08:46:38;;;;;;;44.55;19.00;;;;;;;7.30;86.27;99337.69;5532846;32;34276;-84
2023/03/07 08:49:41;;;;;;;31.08;17.35;;;;;;;6.93;79.46;99335.16;5526927;32;34495;-85
2023/03/07 08:52:44;;;;;;;35.60;18.42;;;;;;;7.15;77.09;99345.44;5519522;32;34300;-84
2023/03/07 08:55:48;;;;;;;32.63;17.42;;;;;;;7.42;79.66;99344.09;5532150;32;33867;-85
2023/03/07 08:58:53;;;;;;;30.35;16.65;;;;;;;7.38;76.30;99342.53;5530870;32;34185;-86
2023/03/07 09:01:56;;;;;;;24.98;14.55;;;;;;;7.27;75.12;99338.69;5524651;32;34245;-85
2023/03/07 09:04:59;;;;;;;24.10;14.43;;;;;;;7.27;72.25;99346.63;5532482;32;34974;-91
2023/03/07 09:08:02;;;;;;;29.08;15.07;;;;;;;7.27;70.91;99345.75;5533345;32;33823;-89
2023/03/07 09:11:05;;;;;;;24.37;14.68;;;;;;;6.97;72.41;99341.12;5530808;32;33826;-90
2023/03/07 09:14:07;;;;;;;24.73;14.18;;;;;;;6.99;72.41;99342.75;5532808;32;33736;-87
2023/03/07 09:17:10;;;;;;;27.25;15.18;;;;;;;6.88;72.24;99342.47;5536775;32;34533;-84
2023/03/07 09:20:16;;;;;;;28.12;15.93;;;;;;;7.13;72.57;99344.69;5519508;32;33996;-84
2023/03/07 09:23:20;;;;;;;29.50;16.70;;;;;;;7.15;72.39;99350.72;5529830;32;33790;-83
2023/03/07 09:26:22;;;;;;;29.02;15.88;;;;;;;7.14;73.33;99342.88;5527049;32;34543;-85
2023/03/07 09:29:25;;;;;;;28.33;15.90;;;;;;;6.60;74.08;99344.69;5532150;32;34071;-84
2023/03/07 09:32:28;;;;;;;27.90;14.73;;;;;;;6.50;73.57;99338.19;5531337;32;33683;-84
2023/03/07 09:35:31;;;;;;;27.17;13.75;;;;;;;6.85;74.69;99343.47;5531877;32;33880;-84
2023/03/07 09:38:34;;;;;;;23.80;12.63;;;;;;;7.17;71.43;99334.84;5530280;32;34582;-85
2023/03/07 09:41:49;;;;;;;23.05;12.85;;;;;;;7.55;69.65;99339.00;5541624;32;34143;-84
2023/03/07 09:45:10;;;;;;;24.00;13.40;;;;;;;7.53;67.64;99344.38;5541823;32;33891;-84
2023/03/07 09:48:33;;;;;;;22.75;12.88;;;;;;;7.47;65.22;99339.41;5546308;32;34352;-84
2023/03/07 09:51:38;;;;;;;22.00;12.07;;;;;;;7.66;64.56;99344.53;5532015;32;34049;-84
2023/03/07 09:54:45;;;;;;;21.33;12.15;;;;;;;7.87;66.66;99341.69;5542937;32;33985;-84
2023/03/07 09:57:54;;;;;;;22.92;13.27;;;;;;;8.13;62.44;99342.00;5537383;31;32855;-84
2023/03/07 10:01:00;;;;;;;26.67;14.20;;;;;;;8.05;63.23;99339.78;5528266;32;34471;-87
2023/03/07 10:04:06;;;;;;;24.25;13.38;;;;;;;8.20;62.98;99332.81;5533860;32;34103;-86
2023/03/07 10:07:11;;;;;;;22.05;14.00;;;;;;;8.84;64.82;99337.13;5529172;32;33759;-85
2023/03/07 10:10:26;;;;;;;27.52;14.57;;;;;;;9.23;61.59;99334.81;5530800;32;34251;-87
2023/03/07 10:13:31;;;;;;;26.27;14.63;;;;;;;9.69;60.27;99331.13;5530503;32;33504;-86
2023/03/07 10:17:09;;;;;;;26.50;14.30;;;;;;;10.05;57.72;99333.34;5544230;32;33956;-86
2023/03/07 10:20:21;;;;;;;23.00;12.20;;;;;;;10.42;52.03;99335.38;5546302;32;34346;-87
2023/03/07 10:23:29;;;;;;;22.00;12.32;;;;;;;10.65;51.54;99339.19;5531240;32;33770;-85
2023/03/07 10:26:40;;;;;;;21.45;10.30;;;;;;;10.60;45.45;99346.59;5532634;32;33989;-86
2023/03/07 10:29:54;;;;;;;20.23;11.35;;;;;;;10.60;45.80;99336.84;5534186;32;33666;-85
2023/03/07 10:32:59;;;;;;;14.07;8.85;;;;;;;10.89;43.03;99341.12;5532949;32;35081;-86
2023/03/07 10:36:07;;;;;;;12.10;7.82;;;;;;;10.70;42.26;99331.78;5528071;32;34224;-86
2023/03/07 10:39:33;;;;;;;14.82;8.07;;;;;;;10.88;43.67;99324.38;5539970;32;33873;-86
2023/03/07 10:42:38;;;;;;;12.63;7.50;;;;;;;10.75;42.75;99329.66;5535927;32;34237;-87
2023/03/07 10:45:41;;;;;;;10.75;7.53;;;;;;;10.49;42.52;99323.44;5531384;32;34503;-86
2023/03/07 10:48:48;;;;;;;14.23;8.68;;;;;;;11.07;43.18;99322.28;5531833;32;34612;-86
2023/03/07 10:52:05;;;;;;;14.87;9.95;;;;;;;11.29;41.90;99321.63;5532288;32;34304;-86
2023/03/07 10:55:33;;;;;;;18.48;10.68;;;;;;;10.84;43.19;99316.72;5542678;32;33863;-86
2023/03/07 10:58:36;;;;;;;16.95;10.60;;;;;;;10.75;43.92;99311.09;5536657;32;34616;-90
2023/03/07 11:01:53;;;;;;;16.50;10.43;;;;;;;10.84;44.43;99312.28;5533419;32;34119;-91
2023/03/07 11:04:56;;;;;;;17.42;9.82;;;;;;;10.59;45.54;99291.84;5525809;32;33962;-86
2023/03/07 11:08:18;;;;;;;15.90;9.75;;;;;;;10.72;46.16;99299.84;5532304;32;33957;-86
2023/03/07 11:11:24;;;;;;;17.30;10.05;;;;;;;11.21;44.45;99292.13;5536285;32;34622;-86
2023/03/07 11:14:28;;;;;;;13.88;9.45;;;;;;;10.63;43.70;99286.25;5526946;32;33171;-86
2023/03/07 11:17:42;;;;;;;14.90;10.13;;;;;;;10.25;44.07;99293.13;5517995;32;34292;-87
2023/03/07 11:20:48;;;;;;;15.90;9.60;;;;;;;10.16;44.74;99280.47;5522655;32;34107;-87
2023/03/07 11:24:15;;;;;;;16.35;9.60;;;;;;;9.81;45.53;99279.16;5524704;32;33839;-87
2023/03/07 11:27:33;;;;;;;17.27;10.02;;;;;;;9.54;46.35;99268.53;5517812;32;34667;-87
2023/03/07 11:30:48;;;;;;;20.02;10.77;;;;;;;9.53;46.54;99261.53;5530731;32;34512;-87
2023/03/07 11:34:13;;;;;;;15.48;9.85;;;;;;;9.69;46.52;99253.47;5526909;32;34878;-87
2023/03/07 11:37:28;;;;;;;20.67;11.48;;;;;;;9.89;45.84;99238.94;5516019;32;34310;-87
2023/03/07 11:40:49;;;;;;;21.10;12.13;;;;;;;9.83;46.50;99226.09;5538852;32;34353;-92
2023/03/07 11:44:33;;;;;;;20.48;11.98;;;;;;;9.73;47.52;99219.69;5542876;32;34253;-88
2023/03/07 11:48:04;;;;;;;20.92;11.00;;;;;;;9.63;48.36;99225.59;5545800;32;34057;-85
2023/03/07 11:51:28;;;;;;;20.62;12.77;;;;;;;9.79;49.36;99216.66;5543820;32;34103;-87
2023/03/07 11:54:50;;;;;;;22.80;13.15;;;;;;;9.68;49.07;99217.34;5543842;32;33651;-87
2023/03/07 11:58:09;;;;;;;24.48;14.52;;;;;;;9.30;53.43;99214.41;5540613;32;33877;-87
2023/03/07 12:01:24;;;;;;;25.75;15.13;;;;;;;9.09;57.31;99208.66;5550828;32;33124;-89
2023/03/07 12:04:44;;;;;;;23.38;14.80;;;;;;;8.72;63.75;99209.16;5538800;32;33977;-91
2023/03/07 12:08:20;;;;;;;25.10;15.27;;;;;;;8.79;65.12;99206.13;5549374;32;34957;-90
2023/03/07 12:11:33;;;;;;;27.00;15.23;;;;;;;8.60;66.38;99217.81;5550730;32;34717;-89
2023/03/07 12:14:49;;;;;;;24.20;14.70;;;;;;;8.33;66.01;99210.56;5559850;32;32047;-88
2023/03/07 12:18:04;;;;;;;23.80;14.70;;;;;;;8.36;65.86;99213.03;5584167;26;34868;-88
2023/03/07 12:21:36;;;;;;;31.15;15.10;;;;;;;8.13;67.69;99198.50;5564791;32;35010;-88
2023/03/07 12:24:56;;;;;;;27.95;13.90;;;;;;;8.00;68.38;99201.03;5540538;32;34778;-87
2023/03/07 12:27:59;;;;;;;22.02;13.40;;;;;;;8.40;67.27;99196.03;5546864;32;35725;-88
2023/03/07 12:31:18;;;;;;;20.73;13.10;;;;;;;8.54;66.84;99189.94;5622814;26;35231;-88
2023/03/07 12:34:34;;;;;;;20.73;12.43;;;;;;;8.38;67.23;99192.63;5558333;32;34713;-92
2023/03/07 12:37:48;;;;;;;20.73;12.20;;;;;;;8.25;66.84;99196.94;5547262;32;34704;-89
2023/03/07 12:40:59;;;;;;;24.83;12.32;;;;;;;8.11;67.37;99195.13;5610721;26;34400;-89
2023/03/07 12:44:09;;;;;;;19.73;11.98;;;;;;;8.10;67.76;99191.63;5595359;31;33796;-88
2023/03/07 12:47:33;;;;;;;22.25;12.63;;;;;;;8.16;67.03;99191.28;5578340;31;35392;-87
2023/03/07 12:51:01;;;;;;;21.98;12.00;;;;;;;7.81;67.49;99192.37;5592546;31;34244;-87
2023/03/07 12:54:28;;;;;;;22.62;12.40;;;;;;;7.62;68.02;99192.56;5578486;31;36333;-88
2023/03/07 12:57:39;;;;;;;17.67;10.93;;;;;;;7.60;68.29;99196.25;5589630;31;34446;-89
2023/03/07 13:00:48;;;;;;;18.00;11.43;;;;;;;7.60;66.38;99189.16;5592082;31;34626;-88
2023/03/07 13:04:02;;;;;;;19.48;11.05;;;;;;;7.35;65.39;99185.25;5584391;31;33923;-89
2023/03/07 13:07:22;;;;;;;21.75;11.02;;;;;;;7.37;64.65;99196.59;5581069;31;34088;-90
2023/03/07 13:10:26;;;;;;;18.95;10.57;;;;;;;7.52;63.55;99192.25;5587463;31;34049;-89
2023/03/07 13:13:46;;;;;;;17.80;10.52;;;;;;;7.47;62.92;99185.50;5604678;26;34699;-88
2023/03/07 13:16:50;;;;;;;16.87;10.07;;;;;;;7.35;61.93;99195.81;5560959;32;34248;-88
2023/03/07 13:20:16;;;;;;;16.02;9.43;;;;;;;7.09;63.03;99200.72;5565697;32;34402;-88
2023/03/07 13:23:27;;;;;;;15.90;9.52;;;;;;;7.07;64.36;99209.66;5607962;26;33795;-92
2023/03/07 13:30:28;;;;;;;18.20;9.88;;;;;;;6.72;66.32;99208.81;5422919;30;20099;-88
2023/03/07 13:33:31;;;;;;;18.33;10.32;;;;;;;6.60;69.71;99201.56;5591505;31;34581;-89
2023/03/07 13:36:38;;;;;;;17.50;9.90;;;;;;;6.40;72.35;99199.97;5639166;26;32983;-89
2023/03/07 13:39:58;;;;;;;19.58;10.05;;;;;;;6.44;72.83;99204.97;5577374;32;33963;-89
2023/03/07 13:43:27;;;;;;;17.47;9.70;;;;;;;6.46;73.38;99200.50;5560022;32;34606;-91
2023/03/07 13:54:12;;;;;;;20.73;10.38;;;;;;;6.42;74.46;99192.81;4097876;29;20369;-89
2023/03/07 13:57:19;;;;;;;17.40;10.85;;;;;;;6.55;74.05;99185.13;5572191;32;34443;-87
2023/03/07 14:00:29;;;;;;;18.30;10.75;;;;;;;6.58;73.29;99183.19;5573594;32;36439;-88
2023/03/07 14:03:43;;;;;;;17.58;10.23;;;;;;;6.45;74.52;99180.34;5571832;32;33748;-89
2023/03/07 14:06:51;;;;;;;19.40;11.45;;;;;;;6.49;75.03;99172.28;5565156;31;34058;-89
2023/03/07 14:10:06;;;;;;;18.45;11.32;;;;;;;6.50;73.86;99171.34;5554942;32;34159;-88
2023/03/07 14:13:53;;;;;;;25.25;11.27;;;;;;;6.47;74.61;99167.09;5551817;32;34252;-88
2023/03/07 14:16:55;;;;;;;20.37;11.88;;;;;;;6.38;74.50;99163.16;5554084;32;35660;-88
2023/03/07 14:20:10;;;;;;;19.85;10.90;;;;;;;6.68;73.73;99151.09;5554308;32;34499;-88
2023/03/07 14:23:41;;;;;;;21.10;11.68;;;;;;;6.74;74.12;99142.88;5552155;32;33821;-88
2023/03/07 14:26:51;;;;;;;20.48;11.52;;;;;;;6.63;74.43;99134.69;5551305;32;33503;-88
2023/03/07 14:29:55;;;;;;;19.73;11.48;;;;;;;6.58;74.58;99146.31;5553062;32;33803;-89
2023/03/07 14:32:59;;;;;;;20.33;11.07;;;;;;;6.73;73.83;99149.91;5557047;32;33885;-90
2023/03/07 14:36:16;;;;;;;20.83;11.40;;;;;;;6.47;75.10;99151.28;5557362;32;35108;-89
2023/03/07 14:39:20;;;;;;;19.83;11.70;;;;;;;6.35;75.19;99150.16;5570505;32;33892;-87
2023/03/07 14:42:58;;;;;;;20.45;11.50;;;;;;;6.35;75.20;99147.53;5569643;32;34119;-87
2023/03/07 14:46:07;;;;;;;20.60;11.88;;;;;;;6.25;76.58;99144.50;5567395;32;34539;-87
2023/03/07 14:49:26;;;;;;;22.58;12.02;;;;;;;6.22;77.11;99143.81;5571170;32;34334;-87
2023/03/07 14:52:29;;;;;;;24.87;12.32;;;;;;;6.03;79.31;99140.34;5570643;32;34017;-87
2023/03/07 14:55:37;;;;;;;22.08;12.07;;;;;;;5.96;80.75;99149.44;5570972;32;34264;-86
2023/03/07 14:59:08;;;;;;;21.92;12.52;;;;;;;5.93;81.33;99139.91;5571708;32;35032;-87
2023/03/07 15:02:20;;;;;;;22.15;12.68;;;;;;;5.97;82.18;99142.38;5580609;32;33797;-88
2023/03/07 15:05:27;;;;;;;27.65;13.38;;;;;;;6.00;82.44;99139.59;5579389;32;34227;-86
2023/03/07 15:08:34;;;;;;;22.92;12.65;;;;;;;6.06;82.16;99140.19;5576970;32;34466;-85
2023/03/07 15:11:43;;;;;;;27.00;13.02;;;;;;;6.00;83.35;99132.56;5572922;32;34265;-85
2023/03/07 15:14:56;;;;;;;24.52;13.35;;;;;;;5.87;85.01;99140.22;5581498;32;35054;-85
2023/03/07 15:18:05;;;;;;;24.10;13.60;;;;;;;5.81;86.57;99132.63;5578039;32;32555;-85
2023/03/07 15:21:19;;;;;;;24.50;13.88;;;;;;;5.75;88.31;99130.31;5571621;32;34217;-85
2023/03/07 15:24:32;;;;;;;29.40;14.43;;;;;;;5.56;91.69;99133.84;5571435;32;34536;-86
2023/03/07 15:27:35;;;;;;;26.27;14.13;;;;;;;5.64;93.01;99129.06;5572000;32;34114;-90
2023/03/07 15:30:37;;;;;;;25.90;14.40;;;;;;;5.69;93.79;99126.22;5580840;32;33827;-89
2023/03/07 15:33:41;;;;;;;25.60;13.70;;;;;;;5.79;93.27;99129.25;5583651;31;34700;-91
2023/03/07 15:36:44;;;;;;;24.12;13.77;;;;;;;5.76;94.11;99132.00;5575142;32;34268;-90
2023/03/07 15:40:13;;;;;;;25.67;13.25;;;;;;;5.65;95.25;99132.56;5580323;31;34079;-88
2023/03/07 15:44:25;;;;;;;22.20;11.95;;;;;;;5.62;95.23;99125.66;5587736;31;34332;-87
2023/03/07 15:47:49;;;;;;;19.58;11.77;;;;;;;5.55;94.82;99102.34;5576275;31;33209;-86
2023/03/07 15:50:59;;;;;;;24.67;11.65;;;;;;;5.47;96.87;99107.97;5581987;32;33987;-86
2023/03/07 15:54:30;;;;;;;20.12;11.05;;;;;;;5.23;99.08;99110.91;5574462;32;33835;-86
2023/03/07 15:57:46;;;;;;;19.77;10.95;;;;;;;5.26;98.71;99106.34;5582984;32;34295;-90
2023/03/07 16:00:49;;;;;;;18.62;10.80;;;;;;;5.14;100.00;99096.41;5577215;32;34415;-84
2023/03/07 16:04:01;;;;;;;23.40;11.85;;;;;;;5.20;100.00;99097.88;5579186;32;35439;-84
2023/03/07 16:07:06;;;;;;;20.08;10.82;;;;;;;5.28;100.00;99093.09;5575655;32;34398;-84
2023/03/07 16:10:09;;;;;;;17.35;10.45;;;;;;;5.20;100.00;99085.59;5561676;32;34064;-85
2023/03/07 16:13:25;;;;;;;20.62;10.75;;;;;;;5.14;100.00;99083.28;5560731;32;35509;-85
2023/03/07 16:16:33;;;;;;;19.70;10.95;;;;;;;5.10;100.00;99074.69;5548390;32;33785;-86
2023/03/07 16:19:39;;;;;;;17.30;9.93;;;;;;;5.12;100.00;99077.22;5563571;32;34946;-84
2023/03/07 16:22:46;;;;;;;19.98;10.50;;;;;;;5.12;100.00;99083.34;5563240;32;34695;-85
2023/03/07 16:25:54;;;;;;;17.15;9.80;;;;;;;5.10;100.00;99079.94;5563736;32;35192;-85
